This is the latest recevied weather packets stored in our database for station/object KI8L. If no packets are shown the sender has not sent any weather packets the latest 10 day(s).
| Time | Temp. | Humidity | Pressure | Rain* | Wind** | Luminosity | Snow |
|---|---|---|---|---|---|---|---|
| 1777393761 | 18.89° C | 87% | 1014.6 hPa | 0 mm | - | 324 W/m² | - |
| 1777393461 | 18.89° C | 87% | 1014.6 hPa | 0 mm | - | 278 W/m² | - |
| 1777393157 | 18.33° C | 89% | 1014.7 hPa | 0 mm | - | 203 W/m² | - |
| 1777392854 | 18.33° C | 90% | 1014.7 hPa | 0 mm | - | 431 W/m² | - |
| 1777392549 | 18.89° C | 90% | 1014.8 hPa | 0 mm | - | 271 W/m² | - |
| 1777392245 | 18.33° C | 90% | 1014.7 hPa | 0 mm | - | 227 W/m² | - |
| 1777391940 | 17.22° C | 95% | 1014.9 hPa | 0 mm | - | 777 W/m² | - |
| 1777391635 | 16.67° C | 94% | 1015 hPa | 0 mm | - | 205 W/m² | - |
| 1777391332 | 16.67° C | 95% | 1015.1 hPa | 0 mm | - | 247 W/m² | - |
| 1777391029 | 16.67° C | 97% | 1015 hPa | 0 mm | - | 381 W/m² | - |
| 1777390724 | 16.67° C | 96% | 1014.8 hPa | 0 mm | - | 519 W/m² | - |
| 1777390422 | 16.11° C | 97% | 1014.9 hPa | 0 mm | - | 285 W/m² | - |
| 1777390117 | 15.56° C | 98% | 1014.9 hPa | 0 mm | - | 461 W/m² | - |
| 1777389814 | 15.56° C | 99% | 1014.9 hPa | 0 mm | - | 279 W/m² | - |
| 1777389512 | 15° C | 99% | 1014.9 hPa | 0 mm | - | 192 W/m² | - |
| 1777389208 | 15° C | 99% | 1014.8 hPa | 0 mm | - | 114 W/m² | - |
| 1777388906 | 15° C | 97% | 1014.8 hPa | 0 mm | - | 128 W/m² | - |
| 1777388602 | 15° C | 98% | 1014.8 hPa | 0 mm | - | 120 W/m² | - |
| 1777388299 | 15° C | 98% | 1014.7 hPa | 0 mm | - | 99 W/m² | - |
| 1777387993 | 15.56° C | 97% | 1014.7 hPa | 0 mm | - | 81 W/m² | - |
| 1777387690 | 15.56° C | 96% | 1014.7 hPa | 0 mm | - | 111 W/m² | - |
| 1777387386 | 15.56° C | 95% | 1014.6 hPa | 0 mm | - | 112 W/m² | - |
| 1777387081 | 15.56° C | 96% | 1014.7 hPa | 0 mm | - | 154 W/m² | - |
| 1777386777 | 15° C | 96% | 1014.8 hPa | 0 mm | - | 184 W/m² | - |
| 1777386474 | 15° C | 96% | 1014.7 hPa | 0 mm | - | 83 W/m² | - |
* Rain latest hour (hover to see other rain measurements)
** Current wind speed in m/s (hover to see current wind gust speed)